Time;durP1;ratioP1;P1;durP2;ratioP2;P2;SDS_P1;SDS_P2;PMS_P1;PMS_P2;Temp;Humidity;BMP_temperature;BMP_pressure;BME280_temperature;BME280_humidity;BME280_pressure;Samples;Min_cycle;Max_cycle;Signal;HPM_P1;HPM_P2
2023/05/03 00:00:42;;;;;;;4.63;3.80;;;18.90;61.20;19.70;101936.00;;;;5028799;28;20171;-54
2023/05/03 00:03:08;;;;;;;6.57;4.20;;;18.90;61.30;19.60;101931.00;;;;5028656;28;20536;-53
2023/05/03 00:05:33;;;;;;;6.17;4.23;;;18.90;61.30;19.60;101941.00;;;;5028373;28;20189;-53
2023/05/03 00:07:59;;;;;;;7.23;4.30;;;18.90;61.30;19.60;101934.00;;;;5028353;28;20203;-55
2023/05/03 00:10:25;;;;;;;5.63;4.27;;;18.90;61.40;19.60;101942.00;;;;5028789;28;20178;-54
2023/05/03 00:12:51;;;;;;;7.87;4.37;;;18.90;61.50;19.60;101935.00;;;;5028213;28;20696;-55
2023/05/03 00:15:17;;;;;;;6.43;4.30;;;18.90;61.50;19.60;101932.00;;;;5028380;28;20582;-54
2023/05/03 00:17:42;;;;;;;6.77;4.30;;;18.80;61.50;19.60;101929.00;;;;5028083;28;20257;-52
2023/05/03 00:20:08;;;;;;;5.17;3.90;;;18.80;61.50;19.60;101935.00;;;;5028407;28;20347;-53
2023/05/03 00:22:34;;;;;;;6.40;4.30;;;18.80;61.60;19.60;101919.00;;;;5028504;28;20663;-58
2023/05/03 00:25:00;;;;;;;6.07;4.03;;;18.80;61.70;19.60;101916.00;;;;5028451;28;20179;-53
2023/05/03 00:27:25;;;;;;;5.53;3.80;;;18.70;61.70;19.60;101914.00;;;;5027904;28;20214;-54
2023/05/03 00:29:51;;;;;;;5.93;3.83;;;18.80;61.60;19.60;101913.00;;;;5028106;28;20194;-54
2023/05/03 00:32:21;;;;;;;6.73;3.90;;;18.70;61.50;19.60;101912.00;;;;5028010;28;20190;-53
2023/05/03 00:34:55;;;;;;;4.20;3.60;;;18.70;61.60;19.50;101915.00;;;;5026630;28;20206;-53
2023/05/03 00:37:21;;;;;;;5.60;3.83;;;18.70;61.60;19.50;101905.00;;;;5027716;28;20653;-54
2023/05/03 00:39:47;;;;;;;4.20;3.60;;;18.70;61.70;19.50;101915.00;;;;5026817;28;20509;-53
2023/05/03 00:42:13;;;;;;;5.37;4.13;;;18.70;61.70;19.50;101918.00;;;;5028186;28;20222;-54
2023/05/03 00:44:39;;;;;;;4.03;3.53;;;18.70;61.70;19.50;101925.00;;;;5028351;28;20167;-55
2023/05/03 00:47:05;;;;;;;6.07;3.60;;;18.60;61.60;19.50;101923.00;;;;5027539;28;20170;-54
2023/05/03 00:49:31;;;;;;;6.37;3.60;;;18.70;61.80;19.50;101925.00;;;;5027701;28;20198;-54
2023/05/03 00:51:58;;;;;;;5.27;3.87;;;18.70;61.80;19.50;101926.00;;;;5027774;28;20186;-54
2023/05/03 00:54:28;;;;;;;3.80;3.37;;;18.70;61.70;19.40;101921.00;;;;5033712;28;20181;-54
2023/05/03 00:56:57;;;;;;;4.23;3.73;;;18.60;61.60;19.40;101928.00;;;;5028808;28;20657;-54
2023/05/03 00:59:23;;;;;;;4.67;3.60;;;18.60;61.70;19.40;101925.00;;;;5027849;28;20514;-56
2023/05/03 01:01:50;;;;;;;5.00;3.43;;;18.60;61.70;19.40;101930.00;;;;5028304;28;20182;-55
2023/05/03 01:04:16;;;;;;;3.87;3.50;;;18.60;61.60;19.40;101902.00;;;;5027812;28;20637;-54
2023/05/03 01:07:09;;;;;;;5.77;3.53;;;18.60;61.60;19.30;101920.00;;;;5026393;28;20300;-53
2023/05/03 01:09:52;;;;;;;4.40;3.50;;;18.50;61.50;19.30;101920.00;;;;5027053;28;20207;-54
2023/05/03 01:12:50;;;;;;;3.70;3.20;;;18.50;61.50;19.30;101912.00;;;;5030563;28;20308;-53
2023/05/03 01:16:01;;;;;;;4.87;3.50;;;18.50;61.50;19.30;101920.00;;;;5031635;28;20171;-53
2023/05/03 01:18:31;;;;;;;3.70;3.33;;;18.50;61.40;19.30;101918.00;;;;5031443;28;20309;-54
2023/05/03 01:20:58;;;;;;;4.67;3.40;;;18.50;61.40;19.20;101911.00;;;;5031704;28;20673;-52
2023/05/03 01:23:46;;;;;;;3.97;3.50;;;18.40;61.30;19.20;101916.00;;;;5030333;28;20790;-52
2023/05/03 01:26:30;;;;;;;4.00;3.30;;;18.50;61.30;19.20;101918.00;;;;5034992;28;20542;-54
2023/05/03 01:28:56;;;;;;;4.17;3.30;;;18.50;61.40;19.20;101912.00;;;;5030777;28;20702;-53
2023/05/03 01:31:27;;;;;;;3.30;3.00;;;18.40;61.30;19.20;101915.00;;;;5031983;28;20221;-53
2023/05/03 01:34:27;;;;;;;3.53;3.07;;;18.40;61.30;19.20;101921.00;;;;5030108;28;20258;-54
2023/05/03 01:36:54;;;;;;;4.30;3.30;;;18.40;61.30;19.10;101916.00;;;;5031177;28;20586;-53
2023/05/03 01:39:28;;;;;;;4.27;3.30;;;18.40;61.20;19.10;101925.00;;;;5029849;28;20675;-54
2023/05/03 01:41:53;;;;;;;3.73;3.30;;;18.40;61.20;19.10;101892.00;;;;5054049;28;20147;-57
2023/05/03 01:44:19;;;;;;;4.70;3.43;;;18.30;61.20;19.10;101915.00;;;;5036569;28;20656;-56
2023/05/03 01:46:45;;;;;;;3.70;3.30;;;18.30;61.20;19.10;101919.00;;;;5031218;28;20193;-54
2023/05/03 01:49:11;;;;;;;3.90;3.17;;;18.30;61.20;19.00;101920.00;;;;5032084;28;20226;-54
2023/05/03 01:51:37;;;;;;;3.73;3.10;;;18.30;61.20;19.00;101923.00;;;;5033464;28;20168;-54
2023/05/03 01:54:03;;;;;;;4.03;3.40;;;18.20;61.10;19.00;101920.00;;;;5032470;28;20277;-54
2023/05/03 01:56:30;;;;;;;3.30;3.00;;;18.30;61.20;19.00;101856.00;;;;5034923;28;20183;-54
2023/05/03 01:58:56;;;;;;;3.17;2.83;;;18.30;61.10;19.00;101928.00;;;;5041687;28;20209;-55
2023/05/03 02:01:21;;;;;;;3.20;2.90;;;18.30;61.10;19.00;101922.00;;;;5036823;28;20509;-54
2023/05/03 02:03:47;;;;;;;3.23;2.80;;;18.20;60.90;18.90;101929.00;;;;5031241;28;20175;-53
2023/05/03 02:06:13;;;;;;;3.93;3.10;;;18.20;60.90;18.90;101931.00;;;;5033546;28;20179;-54
2023/05/03 02:08:38;;;;;;;3.20;2.90;;;18.20;60.80;18.90;101935.00;;;;5035326;28;20200;-56
2023/05/03 02:11:05;;;;;;;3.07;2.77;;;18.20;60.80;18.90;101875.00;;;;5033768;28;20262;-56
2023/05/03 02:13:31;;;;;;;4.00;3.17;;;18.20;60.80;18.80;101942.00;;;;5030433;28;20667;-54
2023/05/03 02:15:56;;;;;;;3.50;2.90;;;18.10;60.80;18.80;101939.00;;;;5030508;28;20175;-54
2023/05/03 02:18:22;;;;;;;3.27;2.90;;;18.10;61.10;18.80;101934.00;;;;5030173;28;20255;-54
2023/05/03 02:20:48;;;;;;;3.10;2.80;;;18.10;60.90;18.80;101941.00;;;;5030057;28;20261;-55
2023/05/03 02:23:14;;;;;;;3.10;2.80;;;18.10;61.10;18.80;101952.00;;;;5030547;28;20187;-54
2023/05/03 02:25:40;;;;;;;4.13;2.90;;;18.10;61.30;18.80;101955.00;;;;5030387;28;20186;-54
2023/05/03 02:28:06;;;;;;;3.30;3.00;;;18.10;61.50;18.80;101943.00;;;;5029742;28;20276;-54
2023/05/03 02:30:33;;;;;;;3.20;2.90;;;18.10;61.30;18.80;101950.00;;;;5030092;28;20262;-56
2023/05/03 02:32:59;;;;;;;3.30;2.80;;;18.10;61.30;18.80;101948.00;;;;5030165;28;20289;-54
2023/05/03 02:35:25;;;;;;;3.40;3.10;;;18.10;61.20;18.70;101956.00;;;;5030051;28;20178;-54
2023/05/03 02:37:50;;;;;;;3.17;2.70;;;18.10;61.20;18.70;101887.00;;;;5029936;28;20256;-55
2023/05/03 02:40:16;;;;;;;3.93;3.00;;;18.00;61.10;18.70;101960.00;;;;5030197;28;20203;-56
2023/05/03 02:42:42;;;;;;;3.27;2.97;;;18.00;61.10;18.70;101963.00;;;;5030195;28;20177;-54
2023/05/03 02:45:08;;;;;;;3.13;2.80;;;18.00;61.10;18.70;101968.00;;;;5030016;28;20815;-54
2023/05/03 02:47:34;;;;;;;3.20;2.90;;;18.00;61.10;18.70;101962.00;;;;5029718;28;20314;-55
2023/05/03 02:50:00;;;;;;;3.20;2.90;;;18.00;61.10;18.70;101955.00;;;;5029919;28;20178;-54
2023/05/03 02:52:25;;;;;;;2.93;2.63;;;18.00;61.00;18.60;101961.00;;;;5029994;28;20225;-51
2023/05/03 02:54:51;;;;;;;2.60;2.40;;;17.90;60.90;18.60;101958.00;;;;5029937;28;20675;-52
2023/05/03 02:57:17;;;;;;;3.10;2.80;;;17.90;61.00;18.60;101959.00;;;;5029491;28;20194;-55
2023/05/03 02:59:43;;;;;;;3.20;2.90;;;17.90;60.90;18.60;101951.00;;;;5029800;28;20184;-54
2023/05/03 03:02:08;;;;;;;3.10;2.80;;;17.90;60.90;18.60;101946.00;;;;5029688;28;20225;-54
2023/05/03 03:04:34;;;;;;;2.80;2.50;;;17.90;61.00;18.60;101948.00;;;;5029689;28;20259;-53
2023/05/03 03:07:00;;;;;;;2.90;2.70;;;17.90;61.00;18.60;101966.00;;;;5029420;28;20231;-56
2023/05/03 03:09:25;;;;;;;3.27;2.80;;;17.80;60.90;18.60;101950.00;;;;5030740;28;20615;-53
2023/05/03 03:11:51;;;;;;;2.80;2.60;;;17.90;61.00;18.50;101954.00;;;;5032832;28;20181;-54
2023/05/03 03:14:17;;;;;;;2.70;2.50;;;17.80;60.90;18.50;101937.00;;;;5032948;28;20199;-53
2023/05/03 03:16:44;;;;;;;3.00;2.70;;;17.80;60.90;18.50;101944.00;;;;5030989;28;20182;-56
2023/05/03 03:19:10;;;;;;;2.77;2.57;;;17.80;60.90;18.50;101936.00;;;;5027902;28;20218;-54
2023/05/03 03:21:36;;;;;;;2.90;2.60;;;17.80;60.90;18.50;101933.00;;;;5032524;28;20184;-53
2023/05/03 03:24:03;;;;;;;2.67;2.47;;;17.80;60.90;18.50;101925.00;;;;5032656;28;20247;-52
2023/05/03 03:26:28;;;;;;;2.60;2.40;;;17.70;60.70;18.50;101918.00;;;;5029012;28;20175;-53
2023/05/03 03:28:54;;;;;;;5.03;2.90;;;17.70;60.90;18.50;101927.00;;;;5029008;28;20213;-53
2023/05/03 03:31:21;;;;;;;4.00;2.70;;;17.70;61.50;18.40;101919.00;;;;5029254;28;20696;-52
2023/05/03 03:33:48;;;;;;;3.87;2.30;;;17.70;61.40;18.40;101926.00;;;;5028613;28;20209;-54
2023/05/03 03:36:13;;;;;;;5.83;3.00;;;17.70;61.20;18.40;101923.00;;;;5029068;28;20182;-55
2023/05/03 03:38:40;;;;;;;3.40;2.83;;;17.70;61.10;18.40;101916.00;;;;5033898;28;20179;-54
2023/05/03 03:41:06;;;;;;;4.00;2.80;;;17.70;61.00;18.40;101911.00;;;;5053455;28;20677;-56
2023/05/03 03:43:31;;;;;;;3.03;2.73;;;17.70;60.90;18.40;101913.00;;;;5031036;28;20265;-53
2023/05/03 03:45:57;;;;;;;4.53;3.13;;;17.60;60.70;18.40;101913.00;;;;5030690;28;20238;-56
2023/05/03 03:48:23;;;;;;;2.93;2.60;;;17.60;60.70;18.30;101917.00;;;;5031926;28;20361;-53
2023/05/03 03:50:49;;;;;;;3.17;2.87;;;17.60;60.70;18.30;101914.00;;;;5035717;28;20177;-53
2023/05/03 03:53:14;;;;;;;3.10;2.57;;;17.50;60.40;18.30;101906.00;;;;5032152;28;20242;-57
2023/05/03 03:55:40;;;;;;;3.87;3.00;;;17.50;60.40;18.30;101917.00;;;;5036833;28;20240;-55
2023/05/03 03:58:06;;;;;;;3.03;2.70;;;17.50;60.30;18.30;101921.00;;;;5029952;28;20288;-52
2023/05/03 04:00:33;;;;;;;3.07;2.50;;;17.50;60.10;18.30;101920.00;;;;5030077;28;20596;-53
2023/05/03 04:02:59;;;;;;;2.90;2.57;;;17.50;60.00;18.20;101912.00;;;;5028816;28;20180;-52
2023/05/03 04:05:24;;;;;;;3.27;2.70;;;17.40;59.80;18.20;101927.00;;;;5028768;28;20176;-52
2023/05/03 04:07:50;;;;;;;3.20;2.90;;;17.40;59.70;18.20;101919.00;;;;5028857;28;20496;-54
2023/05/03 04:10:16;;;;;;;2.60;2.40;;;17.40;59.50;18.20;101914.00;;;;5029595;28;20174;-53
2023/05/03 04:12:42;;;;;;;2.50;2.30;;;17.50;59.60;18.20;101909.00;;;;5029410;28;20188;-56
2023/05/03 04:15:09;;;;;;;2.60;2.40;;;17.40;59.40;18.20;101903.00;;;;5029557;28;20169;-53
2023/05/03 04:17:35;;;;;;;3.33;2.80;;;17.40;59.30;18.10;101903.00;;;;5029103;28;20197;-55
2023/05/03 04:20:06;;;;;;;3.30;2.50;;;17.40;59.30;18.10;101899.00;;;;5029474;28;20184;-52
2023/05/03 04:22:32;;;;;;;2.73;2.43;;;17.40;59.10;18.10;101892.00;;;;5029498;28;20184;-54
2023/05/03 04:25:00;;;;;;;3.73;2.77;;;17.30;59.10;18.10;101888.00;;;;5027900;28;20172;-54
2023/05/03 04:27:26;;;;;;;2.80;2.60;;;17.30;59.10;18.10;101894.00;;;;5027456;28;20209;-54
2023/05/03 04:29:52;;;;;;;3.63;2.40;;;17.30;59.10;18.00;101886.00;;;;5029833;28;20205;-55
2023/05/03 04:32:22;;;;;;;3.10;2.50;;;17.20;58.80;18.00;101894.00;;;;5028912;28;20171;-54
2023/05/03 04:34:51;;;;;;;2.67;2.47;;;17.20;58.70;17.70;101902.00;;;;5029635;28;20207;-54
2023/05/03 04:37:20;;;;;;;4.00;2.60;;;17.20;58.70;17.90;101898.00;;;;5003017;28;20190;-54
2023/05/03 04:39:46;;;;;;;3.90;2.63;;;17.20;58.60;17.90;101909.00;;;;5007239;28;20233;-54
2023/05/03 04:42:15;;;;;;;3.40;2.57;;;17.20;58.50;17.90;101911.00;;;;5008888;28;20182;-54
2023/05/03 04:44:44;;;;;;;5.83;2.60;;;17.20;58.40;17.90;101919.00;;;;5011715;28;20175;-53
2023/05/03 04:47:10;;;;;;;3.70;2.30;;;17.20;58.50;17.90;101925.00;;;;5012669;28;20178;-56
2023/05/03 04:49:37;;;;;;;4.03;2.70;;;17.20;58.40;17.90;101934.00;;;;5032618;28;20219;-55
2023/05/03 04:52:03;;;;;;;3.93;2.63;;;17.10;58.20;17.90;101940.00;;;;5031525;28;20190;-54
2023/05/03 04:54:29;;;;;;;4.03;2.60;;;17.20;58.50;17.90;101938.00;;;;5033642;28;20660;-53
2023/05/03 04:56:55;;;;;;;3.47;2.40;;;17.20;58.50;17.90;101940.00;;;;5033209;28;20779;-53
2023/05/03 04:59:21;;;;;;;2.70;2.50;;;17.20;58.50;17.90;101943.00;;;;5032968;28;20589;-53
2023/05/03 05:01:47;;;;;;;4.70;2.60;;;17.20;58.60;17.80;101947.00;;;;5033164;28;20184;-53
2023/05/03 05:04:13;;;;;;;3.90;2.37;;;17.10;58.50;17.80;101947.00;;;;5032075;28;20539;-53
2023/05/03 05:06:39;;;;;;;3.20;2.20;;;17.10;58.50;17.80;101945.00;;;;5031952;28;20180;-54
2023/05/03 05:09:06;;;;;;;2.77;2.27;;;17.20;58.50;17.80;101951.00;;;;5032571;28;20683;-54
2023/05/03 05:11:32;;;;;;;2.47;2.27;;;17.10;58.60;17.80;101949.00;;;;5031981;28;20195;-53
2023/05/03 05:13:58;;;;;;;4.00;2.47;;;17.10;58.50;17.80;101870.00;;;;5031395;28;20170;-52
2023/05/03 05:16:24;;;;;;;2.43;2.23;;;17.10;58.50;17.80;101949.00;;;;5032182;28;20183;-55
2023/05/03 05:18:50;;;;;;;2.50;2.30;;;17.00;58.50;17.80;101945.00;;;;5033057;28;20204;-54
2023/05/03 05:21:15;;;;;;;3.87;2.37;;;17.10;58.60;17.80;101935.00;;;;5028713;28;20242;-54
2023/05/03 05:23:41;;;;;;;2.57;2.27;;;17.00;58.60;17.80;101952.00;;;;5032469;28;20175;-54
2023/05/03 05:26:07;;;;;;;2.30;2.10;;;17.00;58.60;17.80;101952.00;;;;5032615;28;20175;-56
2023/05/03 05:28:32;;;;;;;2.83;2.23;;;17.00;58.60;17.70;101961.00;;;;5030983;28;20216;-54
2023/05/03 05:30:58;;;;;;;2.37;2.17;;;17.00;58.60;17.70;101946.00;;;;5031188;28;20185;-54
2023/05/03 05:33:24;;;;;;;2.30;2.10;;;17.00;58.70;17.70;101963.00;;;;5031892;28;20174;-51
2023/05/03 05:35:49;;;;;;;2.67;2.00;;;17.00;58.70;17.70;101965.00;;;;5032616;28;20176;-54
2023/05/03 05:38:16;;;;;;;2.50;2.30;;;16.90;58.70;17.70;101966.00;;;;5042034;28;20577;-55
2023/05/03 05:40:42;;;;;;;3.30;2.20;;;17.00;58.80;17.70;101978.00;;;;5040377;28;20188;-56
2023/05/03 05:43:08;;;;;;;2.70;2.30;;;17.00;58.90;17.70;101988.00;;;;5032788;28;20174;-54
2023/05/03 05:45:34;;;;;;;3.43;2.27;;;17.00;58.90;17.70;101988.00;;;;5032241;28;20260;-53
2023/05/03 05:48:00;;;;;;;2.83;2.43;;;16.90;58.90;17.70;101979.00;;;;5032002;28;20211;-54
2023/05/03 05:50:26;;;;;;;2.40;2.20;;;16.90;59.00;17.60;101973.00;;;;5033452;28;20242;-55
2023/05/03 05:52:51;;;;;;;2.03;1.90;;;16.80;59.10;17.60;101981.00;;;;5052675;28;20157;-55
2023/05/03 05:55:17;;;;;;;2.53;2.20;;;16.90;59.10;17.60;101987.00;;;;5041008;28;20208;-54
2023/05/03 05:57:43;;;;;;;2.00;1.90;;;16.80;59.10;17.60;101988.00;;;;5031562;28;20214;-52
2023/05/03 06:00:13;;;;;;;2.43;2.23;;;16.80;59.10;17.60;101981.00;;;;5032362;28;20248;-53
2023/05/03 06:02:40;;;;;;;2.23;2.03;;;16.80;59.10;17.60;101989.00;;;;5032000;28;20654;-53
2023/05/03 06:05:07;;;;;;;2.40;2.10;;;16.80;59.10;17.60;101988.00;;;;5030032;28;20199;-51
2023/05/03 06:07:32;;;;;;;2.63;2.10;;;16.80;59.10;17.60;101991.00;;;;5030642;28;20819;-52
2023/05/03 06:09:58;;;;;;;2.40;2.20;;;16.80;59.10;17.60;101989.00;;;;5031848;28;20181;-53
2023/05/03 06:12:24;;;;;;;2.20;2.00;;;16.80;59.30;17.60;101999.00;;;;5031530;28;20183;-54
2023/05/03 06:14:50;;;;;;;2.40;2.20;;;16.80;59.30;17.60;101999.00;;;;5032768;28;20528;-54
2023/05/03 06:17:16;;;;;;;2.40;2.10;;;16.80;59.30;17.50;101992.00;;;;5031482;28;20181;-52
2023/05/03 06:19:42;;;;;;;2.70;2.00;;;16.80;59.30;17.50;102005.00;;;;5031857;28;20180;-55
2023/05/03 06:22:07;;;;;;;2.40;1.80;;;16.70;59.30;17.50;102000.00;;;;5031008;28;20257;-51
2023/05/03 06:24:33;;;;;;;2.10;1.90;;;16.80;59.40;17.50;102009.00;;;;5031282;28;20853;-53
2023/05/03 06:26:59;;;;;;;2.37;2.17;;;16.70;59.30;17.50;101995.00;;;;5030710;28;20282;-53
2023/05/03 06:29:25;;;;;;;2.50;2.07;;;16.70;59.40;17.50;102004.00;;;;5031562;28;20214;-53
2023/05/03 06:31:51;;;;;;;2.20;2.00;;;16.80;59.50;17.40;101999.00;;;;5030283;28;20179;-53
2023/05/03 06:34:20;;;;;;;2.40;2.10;;;16.70;59.50;17.40;102003.00;;;;5029990;28;20180;-53
2023/05/03 06:36:47;;;;;;;2.20;2.00;;;16.70;59.50;17.40;102011.00;;;;5029328;28;20634;-55
2023/05/03 06:39:12;;;;;;;2.30;1.97;;;16.70;59.50;17.40;101991.00;;;;5031074;28;20191;-54
2023/05/03 06:41:38;;;;;;;2.20;2.00;;;16.70;59.60;17.40;102002.00;;;;5030957;28;20175;-53
2023/05/03 06:44:05;;;;;;;2.10;2.00;;;16.70;59.60;17.40;102003.00;;;;5030997;28;20763;-53
2023/05/03 06:46:31;;;;;;;2.30;2.10;;;16.70;59.60;17.40;101995.00;;;;5030681;28;20522;-55
2023/05/03 06:48:57;;;;;;;2.00;1.90;;;16.70;59.80;17.40;101998.00;;;;5030970;28;20264;-52
2023/05/03 06:51:27;;;;;;;4.73;2.10;;;16.70;59.90;17.40;101995.00;;;;5030799;28;20163;-55
2023/05/03 06:54:00;;;;;;;3.17;2.33;;;16.70;60.00;17.40;101995.00;;;;5030590;28;20205;-53
2023/05/03 06:56:27;;;;;;;2.40;2.20;;;16.70;60.00;17.40;101998.00;;;;5030932;28;20213;-56
2023/05/03 06:58:53;;;;;;;2.97;2.20;;;16.70;60.30;17.40;102005.00;;;;5031042;28;20194;-54
2023/05/03 07:01:19;;;;;;;2.90;2.17;;;16.70;60.50;17.40;102007.00;;;;5031134;28;20182;-55
2023/05/03 07:03:45;;;;;;;3.80;2.40;;;16.70;60.50;17.40;102000.00;;;;5030380;28;20174;-53
2023/05/03 07:06:11;;;;;;;4.00;2.43;;;16.70;60.40;17.40;101998.00;;;;5029746;28;20197;-53
2023/05/03 07:08:37;;;;;;;7.30;2.80;;;16.70;60.70;17.30;101999.00;;;;5028363;28;20699;-52
2023/05/03 07:11:03;;;;;;;8.47;3.07;;;16.70;60.80;17.30;101996.00;;;;5029414;28;20171;-54
2023/05/03 07:13:29;;;;;;;4.43;2.63;;;16.60;60.70;17.30;102002.00;;;;5029904;28;20278;-55
2023/05/03 07:15:55;;;;;;;4.17;2.67;;;16.60;60.80;17.30;101992.00;;;;5029804;28;20250;-55
2023/05/03 07:18:21;;;;;;;5.23;2.63;;;16.60;60.70;17.30;102001.00;;;;5029585;28;20191;-55
2023/05/03 07:20:47;;;;;;;3.83;2.37;;;16.60;60.90;17.30;102000.00;;;;5030068;28;20183;-54
2023/05/03 07:23:14;;;;;;;3.63;2.60;;;16.60;60.90;17.30;101992.00;;;;5032640;28;20190;-52
2023/05/03 07:25:41;;;;;;;4.93;2.70;;;16.60;61.00;17.30;101996.00;;;;5030085;28;20171;-55
2023/05/03 07:28:07;;;;;;;4.87;2.90;;;16.60;61.00;17.00;102005.00;;;;5028255;28;20219;-54
2023/05/03 07:30:32;;;;;;;5.07;2.50;;;16.60;61.10;17.30;102006.00;;;;5028706;28;20167;-53
2023/05/03 07:32:58;;;;;;;4.90;2.60;;;16.60;61.10;17.20;101997.00;;;;5028455;28;20187;-53
2023/05/03 07:35:25;;;;;;;4.93;2.60;;;16.60;61.10;17.20;101996.00;;;;5028951;28;20202;-53
2023/05/03 07:37:51;;;;;;;5.27;2.60;;;16.60;61.10;17.20;101986.00;;;;5028923;28;20203;-53
2023/05/03 07:40:18;;;;;;;4.17;2.50;;;16.60;61.20;17.20;101983.00;;;;5047486;28;20206;-57
2023/05/03 07:42:43;;;;;;;4.83;2.70;;;16.60;61.20;17.20;101978.00;;;;5045395;28;20190;-53
2023/05/03 07:45:09;;;;;;;5.07;2.50;;;16.60;61.30;17.20;101974.00;;;;5031847;28;20194;-55
2023/05/03 07:47:39;;;;;;;7.40;2.53;;;16.50;61.20;17.20;101968.00;;;;5029627;28;20203;-54
2023/05/03 07:50:05;;;;;;;3.73;2.30;;;16.50;61.30;17.20;101976.00;;;;5032402;28;20174;-54
2023/05/03 07:52:37;;;;;;;3.97;2.47;;;16.50;61.30;17.20;101966.00;;;;5031072;28;20298;-53
2023/05/03 07:55:07;;;;;;;4.07;2.50;;;16.60;61.40;17.20;101971.00;;;;5047037;28;20178;-55
2023/05/03 07:57:32;;;;;;;2.83;2.30;;;16.50;61.30;17.20;101969.00;;;;5044325;28;20289;-55
2023/05/03 07:59:58;;;;;;;3.03;2.30;;;16.60;61.40;17.20;101973.00;;;;5034092;28;20202;-52
2023/05/03 08:02:24;;;;;;;4.17;2.50;;;16.50;61.40;17.20;101957.00;;;;5030444;28;20211;-54
2023/05/03 08:04:50;;;;;;;3.80;2.10;;;16.50;61.30;17.20;101958.00;;;;5029536;28;20190;-53
2023/05/03 08:07:16;;;;;;;2.80;2.50;;;16.50;61.30;17.20;101955.00;;;;5029777;28;20689;-51
2023/05/03 08:09:42;;;;;;;4.87;2.20;;;16.60;61.50;17.20;101943.00;;;;5029740;28;20206;-53
2023/05/03 08:12:08;;;;;;;2.67;2.23;;;16.50;61.40;17.20;101952.00;;;;5030178;28;20179;-54
2023/05/03 08:14:35;;;;;;;2.40;2.20;;;16.50;61.40;17.20;101959.00;;;;5029960;28;20175;-54
2023/05/03 08:17:03;;;;;;;2.93;2.30;;;16.50;61.40;17.30;101961.00;;;;5029541;28;20164;-53
2023/05/03 08:19:29;;;;;;;5.17;2.37;;;16.50;61.50;17.30;101955.00;;;;5029695;28;20554;-52
2023/05/03 08:21:55;;;;;;;4.77;2.37;;;16.50;61.50;17.30;101955.00;;;;5030072;28;20177;-52
2023/05/03 08:24:21;;;;;;;3.70;2.60;;;16.50;62.40;17.30;101956.00;;;;5029871;28;20349;-53
2023/05/03 08:26:47;;;;;;;3.40;2.20;;;16.50;61.70;17.30;101957.00;;;;5029011;28;20179;-53
2023/05/03 08:29:14;;;;;;;3.87;2.37;;;16.50;61.60;17.30;101955.00;;;;5029636;28;20218;-53
2023/05/03 08:31:40;;;;;;;3.30;2.47;;;16.50;61.70;17.30;101964.00;;;;5031117;28;20254;-55
2023/05/03 08:34:06;;;;;;;3.57;2.23;;;16.50;61.70;17.30;101951.00;;;;5031421;28;20229;-55
2023/05/03 08:36:33;;;;;;;2.97;2.13;;;16.50;61.80;17.30;101950.00;;;;5029386;28;20189;-51
2023/05/03 08:39:00;;;;;;;3.63;2.20;;;16.50;61.90;17.30;101958.00;;;;5030848;28;20206;-55
2023/05/03 08:41:28;;;;;;;4.93;2.20;;;16.50;62.00;17.30;101954.00;;;;5030313;28;20539;-55
2023/05/03 08:43:54;;;;;;;3.50;2.30;;;16.50;62.20;17.30;101938.00;;;;5030002;28;20179;-56
2023/05/03 08:46:20;;;;;;;3.47;2.13;;;16.50;62.30;17.30;101954.00;;;;5029388;28;20236;-54
2023/05/03 08:48:48;;;;;;;2.93;2.10;;;16.50;62.20;17.30;101956.00;;;;5030621;28;20202;-54
2023/05/03 08:51:15;;;;;;;2.10;1.90;;;16.50;62.50;17.30;101936.00;;;;5029585;28;20175;-52
2023/05/03 08:53:41;;;;;;;3.60;2.30;;;16.50;62.50;17.30;101879.00;;;;5028630;28;20179;-51
2023/05/03 08:56:11;;;;;;;2.77;2.43;;;16.40;62.50;17.30;101940.00;;;;5027664;28;20183;-53
2023/05/03 08:58:38;;;;;;;2.27;2.07;;;16.50;62.70;17.30;101941.00;;;;5028182;28;20249;-51
2023/05/03 09:01:05;;;;;;;3.53;2.00;;;16.40;62.70;17.30;101937.00;;;;5028476;28;20175;-52
2023/05/03 09:03:31;;;;;;;4.40;2.50;;;16.50;63.00;17.30;101950.00;;;;5029708;28;20549;-53
2023/05/03 09:06:01;;;;;;;3.10;2.27;;;16.50;62.90;17.30;101947.00;;;;5028961;28;20567;-52
2023/05/03 09:08:27;;;;;;;2.97;2.30;;;16.50;63.00;17.30;101937.00;;;;5028982;28;20211;-54
2023/05/03 09:10:53;;;;;;;3.53;2.00;;;16.50;63.00;17.30;101927.00;;;;5029065;28;20533;-54
2023/05/03 09:13:19;;;;;;;2.67;2.33;;;16.50;63.00;17.30;101934.00;;;;5029409;28;20177;-54
2023/05/03 09:15:54;;;;;;;2.40;2.20;;;16.50;63.20;17.30;101922.00;;;;5029485;28;20174;-53
2023/05/03 09:18:20;;;;;;;2.10;2.00;;;16.50;63.10;17.30;101932.00;;;;5029459;28;20193;-53
2023/05/03 09:20:53;;;;;;;2.10;1.90;;;16.50;63.30;17.30;101935.00;;;;5029926;28;20657;-52
2023/05/03 09:23:30;;;;;;;2.60;2.23;;;16.50;63.10;17.30;101931.00;;;;5031279;28;20181;-56
2023/05/03 09:25:56;;;;;;;2.33;2.13;;;16.50;63.30;17.30;101936.00;;;;5025555;28;20193;-51
2023/05/03 09:28:22;;;;;;;4.53;2.47;;;16.50;63.50;17.30;101932.00;;;;5028455;28;20214;-54
2023/05/03 09:30:49;;;;;;;6.33;2.27;;;16.60;63.60;17.30;101922.00;;;;5029714;28;20178;-55
2023/05/03 09:33:19;;;;;;;2.77;2.40;;;16.60;63.50;17.30;101911.00;;;;5031339;28;20292;-53
2023/05/03 09:36:02;;;;;;;6.13;2.10;;;16.60;63.40;17.30;101913.00;;;;5032581;28;20176;-54
2023/05/03 09:38:30;;;;;;;2.93;2.23;;;16.60;63.50;17.30;101908.00;;;;5032518;28;20198;-52
2023/05/03 09:40:56;;;;;;;9.80;2.83;;;16.60;63.50;17.30;101920.00;;;;5031497;28;20193;-53
2023/05/03 09:43:22;;;;;;;12.50;3.13;;;16.60;64.30;17.30;101843.00;;;;5040135;28;20261;-56
2023/05/03 09:45:47;;;;;;;7.90;3.07;;;16.70;65.00;17.40;101908.00;;;;5052361;28;20189;-55
2023/05/03 09:48:14;;;;;;;10.80;2.60;;;16.70;65.10;17.40;101908.00;;;;5035289;28;20204;-53
2023/05/03 09:50:39;;;;;;;7.83;2.70;;;16.70;64.80;17.40;101877.00;;;;5032664;28;20197;-53
2023/05/03 09:53:06;;;;;;;10.87;3.10;;;16.70;64.80;17.40;101905.00;;;;5032816;28;20179;-56
2023/05/03 09:55:38;;;;;;;10.13;3.03;;;16.70;64.70;17.40;101908.00;;;;5033297;28;20590;-56
2023/05/03 09:58:07;;;;;;;8.40;3.03;;;16.70;64.70;17.40;101899.00;;;;5039072;28;20190;-57
2023/05/03 10:00:41;;;;;;;5.70;2.93;;;16.80;64.80;17.40;101897.00;;;;5055209;28;20176;-54
2023/05/03 10:03:09;;;;;;;20.80;5.80;;;16.80;64.70;17.50;101892.00;;;;5029442;28;20276;-53
2023/05/03 10:05:45;;;;;;;29.03;8.63;;;16.80;64.90;17.40;101890.00;;;;5030341;28;20304;-54
2023/05/03 10:08:18;;;;;;;23.53;8.33;;;16.80;65.00;17.50;101885.00;;;;5030573;28;20432;-54
2023/05/03 10:10:44;;;;;;;30.13;8.83;;;16.80;65.80;17.50;101888.00;;;;5030818;28;20178;-52
2023/05/03 10:13:11;;;;;;;23.47;7.80;;;16.80;64.80;17.50;101890.00;;;;5030946;28;20180;-51
2023/05/03 10:15:37;;;;;;;23.73;8.33;;;16.80;64.60;17.50;101863.00;;;;5028933;28;20599;-54
2023/05/03 10:18:03;;;;;;;27.30;8.43;;;16.90;64.60;17.50;101881.00;;;;5029667;28;20271;-53
2023/05/03 10:20:44;;;;;;;24.40;8.40;;;16.90;64.60;17.50;101873.00;;;;5029761;28;20175;-54
2023/05/03 10:23:11;;;;;;;22.97;7.90;;;16.90;64.80;17.50;101869.00;;;;5030296;28;20172;-54
2023/05/03 10:25:38;;;;;;;25.27;8.07;;;16.80;64.60;17.60;101854.00;;;;5031133;28;20167;-53
2023/05/03 10:28:08;;;;;;;23.03;7.23;;;16.90;64.70;17.60;101857.00;;;;5030391;28;20701;-53
2023/05/03 10:30:35;;;;;;;22.87;7.93;;;16.90;64.70;17.60;101862.00;;;;5032168;28;20167;-56
2023/05/03 10:33:12;;;;;;;25.33;7.83;;;16.90;64.80;17.60;101863.00;;;;5031841;28;20168;-52
2023/05/03 10:35:40;;;;;;;19.97;7.70;;;16.90;64.80;17.60;101854.00;;;;5030857;28;20164;-54
2023/05/03 10:38:16;;;;;;;18.47;6.87;;;16.90;64.80;17.70;101853.00;;;;5031079;28;20733;-54
2023/05/03 10:40:42;;;;;;;19.17;7.00;;;17.00;65.00;17.70;101836.00;;;;5031775;28;20697;-54
2023/05/03 10:43:31;;;;;;;19.00;7.43;;;17.00;64.90;17.70;101847.00;;;;5031374;28;20621;-54
2023/05/03 10:46:10;;;;;;;22.70;7.03;;;17.00;65.00;17.70;101843.00;;;;5031601;28;20203;-53
2023/05/03 10:48:36;;;;;;;18.43;6.70;;;17.00;65.00;17.70;101846.00;;;;5031433;28;20218;-54